sensor_id;sensor_type;location;lat;lon;timestamp;temperature;humidity
18444;DHT22;9350;53.176;8.194;2022-08-19T00:02:22;18.50;99.90
18444;DHT22;9350;53.176;8.194;2022-08-19T00:04:49;18.50;99.90
18444;DHT22;9350;53.176;8.194;2022-08-19T00:07:19;18.50;99.90
18444;DHT22;9350;53.176;8.194;2022-08-19T00:09:46;18.50;99.90
18444;DHT22;9350;53.176;8.194;2022-08-19T00:12:13;18.50;99.90
18444;DHT22;9350;53.176;8.194;2022-08-19T00:14:40;18.50;99.90
18444;DHT22;9350;53.176;8.194;2022-08-19T00:17:08;18.40;99.90
18444;DHT22;9350;53.176;8.194;2022-08-19T00:19:35;18.40;99.90
18444;DHT22;9350;53.176;8.194;2022-08-19T00:22:03;18.30;99.90
18444;DHT22;9350;53.176;8.194;2022-08-19T00:24:32;18.30;99.90
18444;DHT22;9350;53.176;8.194;2022-08-19T00:26:58;18.30;99.90
18444;DHT22;9350;53.176;8.194;2022-08-19T00:29:27;18.20;99.90
18444;DHT22;9350;53.176;8.194;2022-08-19T00:31:54;18.20;99.90
18444;DHT22;9350;53.176;8.194;2022-08-19T00:34:22;18.20;99.90
18444;DHT22;9350;53.176;8.194;2022-08-19T00:36:49;18.10;99.90
18444;DHT22;9350;53.176;8.194;2022-08-19T00:39:16;18.10;99.90
18444;DHT22;9350;53.176;8.194;2022-08-19T00:41:45;18.10;99.90
18444;DHT22;9350;53.176;8.194;2022-08-19T00:44:15;18.00;99.90
18444;DHT22;9350;53.176;8.194;2022-08-19T00:46:44;18.00;99.90
18444;DHT22;9350;53.176;8.194;2022-08-19T00:49:14;18.00;99.90
18444;DHT22;9350;53.176;8.194;2022-08-19T00:51:42;18.00;99.90
18444;DHT22;9350;53.176;8.194;2022-08-19T00:54:09;17.90;99.90
18444;DHT22;9350;53.176;8.194;2022-08-19T00:56:36;17.90;99.90
18444;DHT22;9350;53.176;8.194;2022-08-19T00:59:05;17.90;99.90
18444;DHT22;9350;53.176;8.194;2022-08-19T01:01:34;17.90;99.90
18444;DHT22;9350;53.176;8.194;2022-08-19T01:04:01;17.90;99.90
18444;DHT22;9350;53.176;8.194;2022-08-19T01:06:28;17.90;99.90
18444;DHT22;9350;53.176;8.194;2022-08-19T01:08:57;17.90;99.90
18444;DHT22;9350;53.176;8.194;2022-08-19T01:11:24;17.90;99.90
18444;DHT22;9350;53.176;8.194;2022-08-19T01:13:52;17.90;99.90
18444;DHT22;9350;53.176;8.194;2022-08-19T01:16:22;17.90;99.90
18444;DHT22;9350;53.176;8.194;2022-08-19T01:18:50;17.90;99.90
18444;DHT22;9350;53.176;8.194;2022-08-19T01:21:23;17.80;99.90
18444;DHT22;9350;53.176;8.194;2022-08-19T01:23:53;17.90;99.90
18444;DHT22;9350;53.176;8.194;2022-08-19T01:26:21;17.80;99.90
18444;DHT22;9350;53.176;8.194;2022-08-19T01:28:50;17.80;99.90
18444;DHT22;9350;53.176;8.194;2022-08-19T01:31:20;17.90;99.90
18444;DHT22;9350;53.176;8.194;2022-08-19T01:33:48;17.80;99.90
18444;DHT22;9350;53.176;8.194;2022-08-19T01:36:22;17.80;99.90
18444;DHT22;9350;53.176;8.194;2022-08-19T01:38:49;17.80;99.90
18444;DHT22;9350;53.176;8.194;2022-08-19T01:41:18;17.80;99.90
18444;DHT22;9350;53.176;8.194;2022-08-19T01:43:45;17.70;99.90
18444;DHT22;9350;53.176;8.194;2022-08-19T01:46:12;17.70;99.90
18444;DHT22;9350;53.176;8.194;2022-08-19T01:48:41;17.60;99.90
18444;DHT22;9350;53.176;8.194;2022-08-19T01:51:09;17.60;99.90
18444;DHT22;9350;53.176;8.194;2022-08-19T01:53:37;17.60;99.90
18444;DHT22;9350;53.176;8.194;2022-08-19T01:56:04;17.60;99.90
18444;DHT22;9350;53.176;8.194;2022-08-19T01:58:36;17.50;99.90
18444;DHT22;9350;53.176;8.194;2022-08-19T02:01:05;17.50;99.90
18444;DHT22;9350;53.176;8.194;2022-08-19T02:03:32;17.40;99.90
18444;DHT22;9350;53.176;8.194;2022-08-19T02:06:01;17.40;99.90
18444;DHT22;9350;53.176;8.194;2022-08-19T02:08:31;17.40;99.90
18444;DHT22;9350;53.176;8.194;2022-08-19T02:10:58;17.40;99.90
18444;DHT22;9350;53.176;8.194;2022-08-19T02:13:26;17.40;99.90
18444;DHT22;9350;53.176;8.194;2022-08-19T02:15:54;17.40;99.90
18444;DHT22;9350;53.176;8.194;2022-08-19T02:18:21;17.40;99.90
18444;DHT22;9350;53.176;8.194;2022-08-19T02:20:48;17.40;99.90
18444;DHT22;9350;53.176;8.194;2022-08-19T02:23:16;17.50;99.90
18444;DHT22;9350;53.176;8.194;2022-08-19T02:25:46;17.40;99.90
18444;DHT22;9350;53.176;8.194;2022-08-19T02:28:13;17.50;99.90
18444;DHT22;9350;53.176;8.194;2022-08-19T02:30:41;17.50;99.90
18444;DHT22;9350;53.176;8.194;2022-08-19T02:33:09;17.60;99.90
18444;DHT22;9350;53.176;8.194;2022-08-19T02:35:36;17.60;99.90
18444;DHT22;9350;53.176;8.194;2022-08-19T02:38:02;17.60;99.90
18444;DHT22;9350;53.176;8.194;2022-08-19T02:40:50;17.60;99.90
18444;DHT22;9350;53.176;8.194;2022-08-19T02:43:18;17.60;99.90
18444;DHT22;9350;53.176;8.194;2022-08-19T02:45:46;17.50;99.90
18444;DHT22;9350;53.176;8.194;2022-08-19T02:48:16;17.50;99.90
18444;DHT22;9350;53.176;8.194;2022-08-19T02:50:43;17.50;99.90
18444;DHT22;9350;53.176;8.194;2022-08-19T02:53:11;17.40;99.90
18444;DHT22;9350;53.176;8.194;2022-08-19T02:55:42;17.40;99.90
18444;DHT22;9350;53.176;8.194;2022-08-19T02:58:09;17.30;99.90
18444;DHT22;9350;53.176;8.194;2022-08-19T03:00:40;17.30;99.90
18444;DHT22;9350;53.176;8.194;2022-08-19T03:03:07;17.20;99.90
18444;DHT22;9350;53.176;8.194;2022-08-19T03:05:35;17.10;99.90
18444;DHT22;9350;53.176;8.194;2022-08-19T03:08:02;17.10;99.90
18444;DHT22;9350;53.176;8.194;2022-08-19T03:10:31;17.00;99.90
18444;DHT22;9350;53.176;8.194;2022-08-19T03:12:58;17.10;99.90
18444;DHT22;9350;53.176;8.194;2022-08-19T03:15:24;17.00;99.90
18444;DHT22;9350;53.176;8.194;2022-08-19T03:17:51;17.00;99.90
18444;DHT22;9350;53.176;8.194;2022-08-19T03:20:18;16.90;99.90
18444;DHT22;9350;53.176;8.194;2022-08-19T03:22:46;17.00;99.90
18444;DHT22;9350;53.176;8.194;2022-08-19T03:25:13;16.90;99.90
18444;DHT22;9350;53.176;8.194;2022-08-19T03:27:39;17.00;99.90
18444;DHT22;9350;53.176;8.194;2022-08-19T03:30:07;17.00;99.90
18444;DHT22;9350;53.176;8.194;2022-08-19T03:32:35;16.90;99.90
18444;DHT22;9350;53.176;8.194;2022-08-19T03:35:02;17.10;99.90
18444;DHT22;9350;53.176;8.194;2022-08-19T03:37:28;17.10;99.90
18444;DHT22;9350;53.176;8.194;2022-08-19T03:39:56;17.10;99.90
18444;DHT22;9350;53.176;8.194;2022-08-19T03:42:23;17.10;99.90
18444;DHT22;9350;53.176;8.194;2022-08-19T03:44:52;17.10;99.90
18444;DHT22;9350;53.176;8.194;2022-08-19T03:47:19;17.10;99.90
18444;DHT22;9350;53.176;8.194;2022-08-19T03:49:46;17.10;99.90
18444;DHT22;9350;53.176;8.194;2022-08-19T03:52:12;17.10;99.90
18444;DHT22;9350;53.176;8.194;2022-08-19T03:54:39;17.10;99.90
18444;DHT22;9350;53.176;8.194;2022-08-19T03:57:07;17.00;99.90
18444;DHT22;9350;53.176;8.194;2022-08-19T03:59:36;17.00;99.90
18444;DHT22;9350;53.176;8.194;2022-08-19T04:02:07;17.00;99.90
18444;DHT22;9350;53.176;8.194;2022-08-19T04:04:35;17.10;99.90
18444;DHT22;9350;53.176;8.194;2022-08-19T04:07:02;17.10;99.90
18444;DHT22;9350;53.176;8.194;2022-08-19T04:09:30;17.00;99.90
18444;DHT22;9350;53.176;8.194;2022-08-19T04:11:57;17.00;99.90
18444;DHT22;9350;53.176;8.194;2022-08-19T04:14:27;17.00;99.90
18444;DHT22;9350;53.176;8.194;2022-08-19T04:16:56;17.00;99.90
18444;DHT22;9350;53.176;8.194;2022-08-19T04:19:23;16.90;99.90
18444;DHT22;9350;53.176;8.194;2022-08-19T04:21:59;16.90;99.90
18444;DHT22;9350;53.176;8.194;2022-08-19T04:24:26;16.90;99.90
18444;DHT22;9350;53.176;8.194;2022-08-19T04:26:53;16.90;99.90
18444;DHT22;9350;53.176;8.194;2022-08-19T04:29:22;16.90;99.90
18444;DHT22;9350;53.176;8.194;2022-08-19T04:31:52;17.00;99.90
18444;DHT22;9350;53.176;8.194;2022-08-19T04:34:21;16.90;99.90
18444;DHT22;9350;53.176;8.194;2022-08-19T04:36:49;17.00;99.90
18444;DHT22;9350;53.176;8.194;2022-08-19T04:39:19;17.00;99.90
18444;DHT22;9350;53.176;8.194;2022-08-19T04:41:47;17.00;99.90
18444;DHT22;9350;53.176;8.194;2022-08-19T04:44:31;16.80;99.90
18444;DHT22;9350;53.176;8.194;2022-08-19T04:47:00;16.90;99.90
18444;DHT22;9350;53.176;8.194;2022-08-19T04:49:27;16.90;99.90
18444;DHT22;9350;53.176;8.194;2022-08-19T04:51:55;16.90;99.90
18444;DHT22;9350;53.176;8.194;2022-08-19T04:54:24;16.90;99.90
18444;DHT22;9350;53.176;8.194;2022-08-19T04:56:52;16.90;99.90
18444;DHT22;9350;53.176;8.194;2022-08-19T04:59:20;16.90;99.90
18444;DHT22;9350;53.176;8.194;2022-08-19T05:01:47;16.90;99.90
18444;DHT22;9350;53.176;8.194;2022-08-19T05:04:19;16.80;99.90
18444;DHT22;9350;53.176;8.194;2022-08-19T05:06:47;16.90;99.90
18444;DHT22;9350;53.176;8.194;2022-08-19T05:09:14;16.90;99.90
18444;DHT22;9350;53.176;8.194;2022-08-19T05:11:43;16.90;99.90
18444;DHT22;9350;53.176;8.194;2022-08-19T05:14:10;17.00;99.90
18444;DHT22;9350;53.176;8.194;2022-08-19T05:16:38;17.00;99.90
18444;DHT22;9350;53.176;8.194;2022-08-19T05:19:05;17.00;99.90
18444;DHT22;9350;53.176;8.194;2022-08-19T05:21:51;17.00;99.90
18444;DHT22;9350;53.176;8.194;2022-08-19T05:24:36;17.10;99.90
18444;DHT22;9350;53.176;8.194;2022-08-19T05:27:04;17.10;99.90
18444;DHT22;9350;53.176;8.194;2022-08-19T05:29:31;17.10;99.90
18444;DHT22;9350;53.176;8.194;2022-08-19T05:32:00;17.10;99.90
18444;DHT22;9350;53.176;8.194;2022-08-19T05:34:27;17.30;99.90
18444;DHT22;9350;53.176;8.194;2022-08-19T05:36:56;17.20;99.90
18444;DHT22;9350;53.176;8.194;2022-08-19T05:39:26;17.30;99.90
18444;DHT22;9350;53.176;8.194;2022-08-19T05:41:55;17.30;99.90
18444;DHT22;9350;53.176;8.194;2022-08-19T05:44:24;17.20;99.90
18444;DHT22;9350;53.176;8.194;2022-08-19T05:46:51;17.30;99.90
18444;DHT22;9350;53.176;8.194;2022-08-19T05:49:20;17.30;99.90
18444;DHT22;9350;53.176;8.194;2022-08-19T05:51:48;17.30;99.90
18444;DHT22;9350;53.176;8.194;2022-08-19T05:54:16;17.40;99.90
18444;DHT22;9350;53.176;8.194;2022-08-19T05:56:43;17.50;99.90
18444;DHT22;9350;53.176;8.194;2022-08-19T05:59:14;17.50;99.90
18444;DHT22;9350;53.176;8.194;2022-08-19T06:01:44;17.60;99.90
18444;DHT22;9350;53.176;8.194;2022-08-19T06:04:12;17.50;99.90
18444;DHT22;9350;53.176;8.194;2022-08-19T06:06:40;17.60;99.90
18444;DHT22;9350;53.176;8.194;2022-08-19T06:09:07;17.60;99.90
18444;DHT22;9350;53.176;8.194;2022-08-19T06:11:39;17.70;99.90
18444;DHT22;9350;53.176;8.194;2022-08-19T06:14:08;17.70;99.90
18444;DHT22;9350;53.176;8.194;2022-08-19T06:16:36;17.80;99.90
18444;DHT22;9350;53.176;8.194;2022-08-19T06:19:06;17.80;99.90
18444;DHT22;9350;53.176;8.194;2022-08-19T06:21:34;17.90;99.90
18444;DHT22;9350;53.176;8.194;2022-08-19T06:24:03;18.00;99.90
18444;DHT22;9350;53.176;8.194;2022-08-19T06:26:30;18.00;99.90
18444;DHT22;9350;53.176;8.194;2022-08-19T06:28:58;18.10;99.90
18444;DHT22;9350;53.176;8.194;2022-08-19T06:31:26;18.20;99.90
18444;DHT22;9350;53.176;8.194;2022-08-19T06:33:54;18.20;99.90
18444;DHT22;9350;53.176;8.194;2022-08-19T06:36:25;18.20;99.90
18444;DHT22;9350;53.176;8.194;2022-08-19T06:38:56;18.30;99.90
18444;DHT22;9350;53.176;8.194;2022-08-19T06:41:23;18.30;99.90
18444;DHT22;9350;53.176;8.194;2022-08-19T06:43:50;18.30;99.90
18444;DHT22;9350;53.176;8.194;2022-08-19T06:46:18;18.40;99.90
18444;DHT22;9350;53.176;8.194;2022-08-19T06:48:45;18.40;99.90
18444;DHT22;9350;53.176;8.194;2022-08-19T06:51:12;18.50;99.90
18444;DHT22;9350;53.176;8.194;2022-08-19T06:53:41;18.50;99.90
18444;DHT22;9350;53.176;8.194;2022-08-19T06:56:12;18.40;99.90
18444;DHT22;9350;53.176;8.194;2022-08-19T06:58:39;18.50;99.90
18444;DHT22;9350;53.176;8.194;2022-08-19T07:01:06;18.50;99.90
18444;DHT22;9350;53.176;8.194;2022-08-19T07:03:36;18.60;99.90
18444;DHT22;9350;53.176;8.194;2022-08-19T07:06:04;18.60;99.90
18444;DHT22;9350;53.176;8.194;2022-08-19T07:08:30;18.70;99.90
18444;DHT22;9350;53.176;8.194;2022-08-19T07:10:58;18.70;99.90
18444;DHT22;9350;53.176;8.194;2022-08-19T07:13:25;18.70;99.90
18444;DHT22;9350;53.176;8.194;2022-08-19T07:15:52;18.70;99.90
18444;DHT22;9350;53.176;8.194;2022-08-19T07:18:20;18.80;99.90
18444;DHT22;9350;53.176;8.194;2022-08-19T07:20:48;18.80;99.90
18444;DHT22;9350;53.176;8.194;2022-08-19T07:23:15;18.90;99.90
18444;DHT22;9350;53.176;8.194;2022-08-19T07:25:42;18.90;99.90
18444;DHT22;9350;53.176;8.194;2022-08-19T07:28:09;18.90;99.90
18444;DHT22;9350;53.176;8.194;2022-08-19T07:30:37;19.00;99.90
18444;DHT22;9350;53.176;8.194;2022-08-19T07:33:06;19.00;99.90
18444;DHT22;9350;53.176;8.194;2022-08-19T07:35:33;19.00;99.90
18444;DHT22;9350;53.176;8.194;2022-08-19T07:38:01;19.10;99.90
18444;DHT22;9350;53.176;8.194;2022-08-19T07:40:29;19.10;99.90
18444;DHT22;9350;53.176;8.194;2022-08-19T07:42:56;19.10;99.90
18444;DHT22;9350;53.176;8.194;2022-08-19T07:45:23;19.10;99.90
18444;DHT22;9350;53.176;8.194;2022-08-19T07:47:50;19.10;99.90
18444;DHT22;9350;53.176;8.194;2022-08-19T07:50:19;19.20;99.90
18444;DHT22;9350;53.176;8.194;2022-08-19T07:52:47;19.10;99.90
18444;DHT22;9350;53.176;8.194;2022-08-19T07:55:21;19.20;99.90
18444;DHT22;9350;53.176;8.194;2022-08-19T07:57:49;19.20;99.90
18444;DHT22;9350;53.176;8.194;2022-08-19T08:00:18;19.20;99.90
18444;DHT22;9350;53.176;8.194;2022-08-19T08:02:44;19.20;99.90
18444;DHT22;9350;53.176;8.194;2022-08-19T08:05:11;19.20;99.90
18444;DHT22;9350;53.176;8.194;2022-08-19T08:07:55;19.20;99.90
18444;DHT22;9350;53.176;8.194;2022-08-19T08:10:41;19.20;99.90
18444;DHT22;9350;53.176;8.194;2022-08-19T08:13:08;19.20;99.90
18444;DHT22;9350;53.176;8.194;2022-08-19T08:15:35;19.20;99.90
18444;DHT22;9350;53.176;8.194;2022-08-19T08:18:03;19.30;99.90
18444;DHT22;9350;53.176;8.194;2022-08-19T08:20:31;19.30;99.90
18444;DHT22;9350;53.176;8.194;2022-08-19T08:22:58;19.40;99.90
18444;DHT22;9350;53.176;8.194;2022-08-19T08:25:53;19.40;99.90
18444;DHT22;9350;53.176;8.194;2022-08-19T08:28:21;19.50;99.90
18444;DHT22;9350;53.176;8.194;2022-08-19T08:30:49;19.50;99.90
18444;DHT22;9350;53.176;8.194;2022-08-19T08:33:18;19.50;99.90
18444;DHT22;9350;53.176;8.194;2022-08-19T08:35:45;19.60;99.90
18444;DHT22;9350;53.176;8.194;2022-08-19T08:38:13;19.60;99.90
18444;DHT22;9350;53.176;8.194;2022-08-19T08:40:45;19.60;99.90
18444;DHT22;9350;53.176;8.194;2022-08-19T08:43:22;19.70;99.90
18444;DHT22;9350;53.176;8.194;2022-08-19T08:45:56;19.70;99.90
18444;DHT22;9350;53.176;8.194;2022-08-19T08:48:35;19.80;99.90
18444;DHT22;9350;53.176;8.194;2022-08-19T08:51:05;19.80;99.90
18444;DHT22;9350;53.176;8.194;2022-08-19T08:53:34;19.90;99.90
18444;DHT22;9350;53.176;8.194;2022-08-19T08:56:03;19.90;99.90
18444;DHT22;9350;53.176;8.194;2022-08-19T08:58:46;19.90;99.90
18444;DHT22;9350;53.176;8.194;2022-08-19T09:01:15;19.90;99.90
18444;DHT22;9350;53.176;8.194;2022-08-19T09:03:43;20.00;99.90
18444;DHT22;9350;53.176;8.194;2022-08-19T09:06:14;19.90;99.90
18444;DHT22;9350;53.176;8.194;2022-08-19T09:08:49;20.00;99.90
18444;DHT22;9350;53.176;8.194;2022-08-19T09:11:25;20.00;99.90
18444;DHT22;9350;53.176;8.194;2022-08-19T09:14:06;20.10;99.90
18444;DHT22;9350;53.176;8.194;2022-08-19T09:16:36;20.10;99.90
18444;DHT22;9350;53.176;8.194;2022-08-19T09:19:06;20.10;99.90
18444;DHT22;9350;53.176;8.194;2022-08-19T09:21:34;20.20;99.90
18444;DHT22;9350;53.176;8.194;2022-08-19T09:24:01;20.20;99.90
18444;DHT22;9350;53.176;8.194;2022-08-19T09:26:29;20.30;99.90
18444;DHT22;9350;53.176;8.194;2022-08-19T09:28:58;20.40;99.90
18444;DHT22;9350;53.176;8.194;2022-08-19T09:31:29;20.30;99.90
18444;DHT22;9350;53.176;8.194;2022-08-19T09:33:56;20.40;99.90
18444;DHT22;9350;53.176;8.194;2022-08-19T09:36:24;20.60;99.90
18444;DHT22;9350;53.176;8.194;2022-08-19T09:38:52;20.70;99.90
18444;DHT22;9350;53.176;8.194;2022-08-19T09:41:21;20.70;99.90
18444;DHT22;9350;53.176;8.194;2022-08-19T09:43:50;20.70;99.90
18444;DHT22;9350;53.176;8.194;2022-08-19T09:46:20;20.80;99.90
18444;DHT22;9350;53.176;8.194;2022-08-19T09:48:47;20.80;99.90
18444;DHT22;9350;53.176;8.194;2022-08-19T09:51:18;20.80;99.90
18444;DHT22;9350;53.176;8.194;2022-08-19T09:53:45;20.80;99.90
18444;DHT22;9350;53.176;8.194;2022-08-19T09:56:15;20.80;99.90
18444;DHT22;9350;53.176;8.194;2022-08-19T09:58:43;20.80;99.90
18444;DHT22;9350;53.176;8.194;2022-08-19T10:01:16;20.90;99.90
18444;DHT22;9350;53.176;8.194;2022-08-19T10:03:47;20.90;99.90
18444;DHT22;9350;53.176;8.194;2022-08-19T10:06:15;20.90;99.90
18444;DHT22;9350;53.176;8.194;2022-08-19T10:08:41;20.90;99.90
18444;DHT22;9350;53.176;8.194;2022-08-19T10:11:09;20.90;99.90
18444;DHT22;9350;53.176;8.194;2022-08-19T10:13:36;20.90;99.90
18444;DHT22;9350;53.176;8.194;2022-08-19T10:16:05;21.00;99.90
18444;DHT22;9350;53.176;8.194;2022-08-19T10:18:33;21.00;99.90
18444;DHT22;9350;53.176;8.194;2022-08-19T10:21:06;21.00;99.90
18444;DHT22;9350;53.176;8.194;2022-08-19T10:23:35;21.10;99.90
18444;DHT22;9350;53.176;8.194;2022-08-19T10:26:03;21.10;99.90
18444;DHT22;9350;53.176;8.194;2022-08-19T10:28:32;21.20;99.90
18444;DHT22;9350;53.176;8.194;2022-08-19T10:31:02;21.30;99.90
18444;DHT22;9350;53.176;8.194;2022-08-19T10:33:29;21.30;99.90
18444;DHT22;9350;53.176;8.194;2022-08-19T10:35:59;21.30;99.90
18444;DHT22;9350;53.176;8.194;2022-08-19T10:38:27;21.40;99.90
18444;DHT22;9350;53.176;8.194;2022-08-19T10:40:55;21.40;99.90
18444;DHT22;9350;53.176;8.194;2022-08-19T10:43:22;21.40;99.90
18444;DHT22;9350;53.176;8.194;2022-08-19T10:45:52;21.40;99.90
18444;DHT22;9350;53.176;8.194;2022-08-19T10:48:20;21.50;99.90
18444;DHT22;9350;53.176;8.194;2022-08-19T10:50:47;21.60;99.90
18444;DHT22;9350;53.176;8.194;2022-08-19T10:53:33;21.60;99.90
18444;DHT22;9350;53.176;8.194;2022-08-19T10:56:00;21.70;99.90
18444;DHT22;9350;53.176;8.194;2022-08-19T10:58:44;21.70;99.90
18444;DHT22;9350;53.176;8.194;2022-08-19T11:01:11;21.80;99.90
18444;DHT22;9350;53.176;8.194;2022-08-19T11:03:37;21.90;99.90
18444;DHT22;9350;53.176;8.194;2022-08-19T11:06:07;21.90;99.90
18444;DHT22;9350;53.176;8.194;2022-08-19T11:08:36;21.90;99.90
18444;DHT22;9350;53.176;8.194;2022-08-19T11:11:05;21.90;99.90
18444;DHT22;9350;53.176;8.194;2022-08-19T11:13:35;21.80;99.90
18444;DHT22;9350;53.176;8.194;2022-08-19T11:16:04;21.90;99.90
18444;DHT22;9350;53.176;8.194;2022-08-19T11:18:33;21.90;99.90
18444;DHT22;9350;53.176;8.194;2022-08-19T11:21:07;21.90;99.90
18444;DHT22;9350;53.176;8.194;2022-08-19T11:23:36;22.10;99.90
18444;DHT22;9350;53.176;8.194;2022-08-19T11:26:03;22.10;99.90
18444;DHT22;9350;53.176;8.194;2022-08-19T11:28:30;22.20;99.90
18444;DHT22;9350;53.176;8.194;2022-08-19T11:30:56;22.20;99.90
18444;DHT22;9350;53.176;8.194;2022-08-19T11:33:23;22.20;99.90
18444;DHT22;9350;53.176;8.194;2022-08-19T11:35:51;22.20;99.90
18444;DHT22;9350;53.176;8.194;2022-08-19T11:38:18;22.20;99.90
18444;DHT22;9350;53.176;8.194;2022-08-19T11:40:54;22.30;99.90
18444;DHT22;9350;53.176;8.194;2022-08-19T11:43:21;22.40;99.90
18444;DHT22;9350;53.176;8.194;2022-08-19T11:45:48;22.40;99.90
18444;DHT22;9350;53.176;8.194;2022-08-19T11:48:15;22.40;99.90
18444;DHT22;9350;53.176;8.194;2022-08-19T11:50:41;22.40;99.90
18444;DHT22;9350;53.176;8.194;2022-08-19T11:53:08;22.50;99.90
18444;DHT22;9350;53.176;8.194;2022-08-19T11:55:37;22.40;99.90
18444;DHT22;9350;53.176;8.194;2022-08-19T11:58:06;22.40;99.90
18444;DHT22;9350;53.176;8.194;2022-08-19T12:00:33;22.50;99.90
18444;DHT22;9350;53.176;8.194;2022-08-19T12:03:00;22.60;99.90
18444;DHT22;9350;53.176;8.194;2022-08-19T12:05:27;22.60;99.90
18444;DHT22;9350;53.176;8.194;2022-08-19T12:07:54;22.60;99.90
18444;DHT22;9350;53.176;8.194;2022-08-19T12:10:21;22.70;99.90
18444;DHT22;9350;53.176;8.194;2022-08-19T12:12:48;22.80;99.90
18444;DHT22;9350;53.176;8.194;2022-08-19T12:15:16;22.80;99.90
18444;DHT22;9350;53.176;8.194;2022-08-19T12:17:43;22.90;99.90
18444;DHT22;9350;53.176;8.194;2022-08-19T12:20:12;22.90;99.90
18444;DHT22;9350;53.176;8.194;2022-08-19T12:22:41;22.90;99.90
18444;DHT22;9350;53.176;8.194;2022-08-19T12:25:09;23.00;99.90
18444;DHT22;9350;53.176;8.194;2022-08-19T12:27:36;23.00;99.90
18444;DHT22;9350;53.176;8.194;2022-08-19T12:30:06;23.10;99.90
18444;DHT22;9350;53.176;8.194;2022-08-19T12:32:34;23.10;99.90
18444;DHT22;9350;53.176;8.194;2022-08-19T12:35:01;23.10;99.90
18444;DHT22;9350;53.176;8.194;2022-08-19T12:37:28;23.20;99.90
18444;DHT22;9350;53.176;8.194;2022-08-19T12:39:57;23.20;99.90
18444;DHT22;9350;53.176;8.194;2022-08-19T12:42:24;23.30;99.90
18444;DHT22;9350;53.176;8.194;2022-08-19T12:44:51;23.40;99.90
18444;DHT22;9350;53.176;8.194;2022-08-19T12:47:18;23.40;99.90
18444;DHT22;9350;53.176;8.194;2022-08-19T12:49:48;23.40;99.90
18444;DHT22;9350;53.176;8.194;2022-08-19T12:52:14;23.30;99.90
18444;DHT22;9350;53.176;8.194;2022-08-19T12:54:41;23.30;99.90
18444;DHT22;9350;53.176;8.194;2022-08-19T12:57:09;23.40;99.90
18444;DHT22;9350;53.176;8.194;2022-08-19T12:59:37;23.50;99.90
18444;DHT22;9350;53.176;8.194;2022-08-19T13:02:04;23.40;99.90
18444;DHT22;9350;53.176;8.194;2022-08-19T13:04:31;23.40;99.90
18444;DHT22;9350;53.176;8.194;2022-08-19T13:07:02;23.40;99.90
18444;DHT22;9350;53.176;8.194;2022-08-19T13:09:29;23.40;99.90
18444;DHT22;9350;53.176;8.194;2022-08-19T13:11:55;23.50;99.90
18444;DHT22;9350;53.176;8.194;2022-08-19T13:14:22;23.50;99.90
18444;DHT22;9350;53.176;8.194;2022-08-19T13:16:49;23.50;99.90
18444;DHT22;9350;53.176;8.194;2022-08-19T13:19:16;23.40;99.90
18444;DHT22;9350;53.176;8.194;2022-08-19T13:21:49;23.40;99.90
18444;DHT22;9350;53.176;8.194;2022-08-19T13:24:17;23.50;99.90
18444;DHT22;9350;53.176;8.194;2022-08-19T13:26:44;23.50;99.90
18444;DHT22;9350;53.176;8.194;2022-08-19T13:29:11;23.50;99.90
18444;DHT22;9350;53.176;8.194;2022-08-19T13:31:55;23.50;99.90
18444;DHT22;9350;53.176;8.194;2022-08-19T13:34:40;23.50;99.90
18444;DHT22;9350;53.176;8.194;2022-08-19T13:37:06;23.50;99.90
18444;DHT22;9350;53.176;8.194;2022-08-19T13:39:35;23.50;99.90
18444;DHT22;9350;53.176;8.194;2022-08-19T13:42:02;23.50;99.90
18444;DHT22;9350;53.176;8.194;2022-08-19T13:44:30;23.50;99.90
18444;DHT22;9350;53.176;8.194;2022-08-19T13:47:00;23.50;99.90
18444;DHT22;9350;53.176;8.194;2022-08-19T13:49:30;23.60;99.90
18444;DHT22;9350;53.176;8.194;2022-08-19T13:51:57;23.70;99.90
18444;DHT22;9350;53.176;8.194;2022-08-19T13:54:24;23.70;99.90
18444;DHT22;9350;53.176;8.194;2022-08-19T13:56:53;23.70;99.90
18444;DHT22;9350;53.176;8.194;2022-08-19T13:59:20;23.80;99.90
18444;DHT22;9350;53.176;8.194;2022-08-19T14:01:47;23.80;99.90
18444;DHT22;9350;53.176;8.194;2022-08-19T14:04:13;23.80;99.90
18444;DHT22;9350;53.176;8.194;2022-08-19T14:06:40;23.80;99.90
18444;DHT22;9350;53.176;8.194;2022-08-19T14:09:07;23.70;99.90
18444;DHT22;9350;53.176;8.194;2022-08-19T14:11:33;23.70;99.90
18444;DHT22;9350;53.176;8.194;2022-08-19T14:14:02;23.70;99.90
18444;DHT22;9350;53.176;8.194;2022-08-19T14:16:28;23.70;99.90
18444;DHT22;9350;53.176;8.194;2022-08-19T14:18:55;23.70;99.90
18444;DHT22;9350;53.176;8.194;2022-08-19T14:21:23;23.70;99.90
18444;DHT22;9350;53.176;8.194;2022-08-19T14:23:50;23.80;99.90
18444;DHT22;9350;53.176;8.194;2022-08-19T14:26:19;23.80;99.90
18444;DHT22;9350;53.176;8.194;2022-08-19T14:28:46;23.80;99.90
18444;DHT22;9350;53.176;8.194;2022-08-19T14:31:16;23.80;99.90
18444;DHT22;9350;53.176;8.194;2022-08-19T14:33:44;23.80;99.90
18444;DHT22;9350;53.176;8.194;2022-08-19T14:36:11;23.90;99.90
18444;DHT22;9350;53.176;8.194;2022-08-19T14:38:38;23.80;99.90
18444;DHT22;9350;53.176;8.194;2022-08-19T14:41:07;23.90;99.90
18444;DHT22;9350;53.176;8.194;2022-08-19T14:43:34;23.90;99.90
18444;DHT22;9350;53.176;8.194;2022-08-19T14:46:01;24.00;99.90
18444;DHT22;9350;53.176;8.194;2022-08-19T14:48:29;24.00;99.90
18444;DHT22;9350;53.176;8.194;2022-08-19T14:50:56;24.00;99.90
18444;DHT22;9350;53.176;8.194;2022-08-19T14:53:23;24.00;99.90
18444;DHT22;9350;53.176;8.194;2022-08-19T14:55:50;24.00;99.90
18444;DHT22;9350;53.176;8.194;2022-08-19T14:58:16;24.00;99.90
18444;DHT22;9350;53.176;8.194;2022-08-19T15:00:43;24.10;99.90
18444;DHT22;9350;53.176;8.194;2022-08-19T15:03:10;24.10;99.90
18444;DHT22;9350;53.176;8.194;2022-08-19T15:05:39;24.10;99.90
18444;DHT22;9350;53.176;8.194;2022-08-19T15:08:06;24.10;99.90
18444;DHT22;9350;53.176;8.194;2022-08-19T15:10:33;24.20;99.90
18444;DHT22;9350;53.176;8.194;2022-08-19T15:12:59;24.10;99.90
18444;DHT22;9350;53.176;8.194;2022-08-19T15:15:26;24.20;99.90
18444;DHT22;9350;53.176;8.194;2022-08-19T15:17:53;24.20;99.90
18444;DHT22;9350;53.176;8.194;2022-08-19T15:20:21;24.20;99.90
18444;DHT22;9350;53.176;8.194;2022-08-19T15:22:49;24.10;99.90
18444;DHT22;9350;53.176;8.194;2022-08-19T15:25:17;24.10;99.90
18444;DHT22;9350;53.176;8.194;2022-08-19T15:27:46;24.20;99.90
18444;DHT22;9350;53.176;8.194;2022-08-19T15:30:18;24.20;99.90
18444;DHT22;9350;53.176;8.194;2022-08-19T15:32:46;24.20;99.90
18444;DHT22;9350;53.176;8.194;2022-08-19T15:35:13;24.10;99.90
18444;DHT22;9350;53.176;8.194;2022-08-19T15:37:40;24.10;99.90
18444;DHT22;9350;53.176;8.194;2022-08-19T15:40:09;24.10;99.90
18444;DHT22;9350;53.176;8.194;2022-08-19T15:42:37;24.10;99.90
18444;DHT22;9350;53.176;8.194;2022-08-19T15:45:07;24.10;99.90
18444;DHT22;9350;53.176;8.194;2022-08-19T15:47:34;24.20;99.90
18444;DHT22;9350;53.176;8.194;2022-08-19T15:50:05;24.20;99.90
18444;DHT22;9350;53.176;8.194;2022-08-19T15:52:32;24.30;99.90
18444;DHT22;9350;53.176;8.194;2022-08-19T15:54:59;24.30;99.90